sensor_id;sensor_type;location;lat;lon;timestamp;temperature;humidity
34095;DHT22;20372;47.080;15.410;2022-12-11T00:01:45;4.70;99.90
34095;DHT22;20372;47.080;15.410;2022-12-11T00:04:11;4.70;99.90
34095;DHT22;20372;47.080;15.410;2022-12-11T00:06:36;4.70;99.90
34095;DHT22;20372;47.080;15.410;2022-12-11T00:09:02;4.60;99.90
34095;DHT22;20372;47.080;15.410;2022-12-11T00:11:28;4.60;99.90
34095;DHT22;20372;47.080;15.410;2022-12-11T00:13:53;4.50;99.90
34095;DHT22;20372;47.080;15.410;2022-12-11T00:16:19;4.50;99.90
34095;DHT22;20372;47.080;15.410;2022-12-11T00:18:45;4.40;99.90
34095;DHT22;20372;47.080;15.410;2022-12-11T00:21:11;4.50;99.90
34095;DHT22;20372;47.080;15.410;2022-12-11T00:23:38;4.60;99.90
34095;DHT22;20372;47.080;15.410;2022-12-11T00:26:05;4.70;99.90
34095;DHT22;20372;47.080;15.410;2022-12-11T00:28:31;4.70;99.90
34095;DHT22;20372;47.080;15.410;2022-12-11T00:30:57;4.70;99.90
34095;DHT22;20372;47.080;15.410;2022-12-11T00:33:22;4.70;99.90
34095;DHT22;20372;47.080;15.410;2022-12-11T00:35:50;4.70;99.90
34095;DHT22;20372;47.080;15.410;2022-12-11T00:38:17;4.70;99.90
34095;DHT22;20372;47.080;15.410;2022-12-11T00:40:43;4.70;99.90
34095;DHT22;20372;47.080;15.410;2022-12-11T00:43:09;4.60;99.90
34095;DHT22;20372;47.080;15.410;2022-12-11T00:45:36;4.70;99.50
34095;DHT22;20372;47.080;15.410;2022-12-11T00:48:01;4.70;99.70
34095;DHT22;20372;47.080;15.410;2022-12-11T00:50:27;4.70;99.90
34095;DHT22;20372;47.080;15.410;2022-12-11T00:52:53;4.70;98.60
34095;DHT22;20372;47.080;15.410;2022-12-11T00:55:18;4.70;99.40
34095;DHT22;20372;47.080;15.410;2022-12-11T00:57:44;4.70;98.50
34095;DHT22;20372;47.080;15.410;2022-12-11T01:00:10;4.80;97.90
34095;DHT22;20372;47.080;15.410;2022-12-11T01:02:36;4.70;98.80
34095;DHT22;20372;47.080;15.410;2022-12-11T01:05:02;4.80;98.70
34095;DHT22;20372;47.080;15.410;2022-12-11T01:07:27;4.80;98.60
34095;DHT22;20372;47.080;15.410;2022-12-11T01:09:53;4.70;98.00
34095;DHT22;20372;47.080;15.410;2022-12-11T01:12:37;4.80;97.80
34095;DHT22;20372;47.080;15.410;2022-12-11T01:15:03;4.80;97.00
34095;DHT22;20372;47.080;15.410;2022-12-11T01:17:28;4.80;97.40
34095;DHT22;20372;47.080;15.410;2022-12-11T01:19:54;4.80;97.40
34095;DHT22;20372;47.080;15.410;2022-12-11T01:22:19;4.80;97.20
34095;DHT22;20372;47.080;15.410;2022-12-11T01:24:45;4.70;97.00
34095;DHT22;20372;47.080;15.410;2022-12-11T01:27:11;4.70;97.30
34095;DHT22;20372;47.080;15.410;2022-12-11T01:29:36;4.70;97.50
34095;DHT22;20372;47.080;15.410;2022-12-11T01:32:02;4.70;97.70
34095;DHT22;20372;47.080;15.410;2022-12-11T01:34:28;4.60;97.30
34095;DHT22;20372;47.080;15.410;2022-12-11T01:36:53;4.70;97.60
34095;DHT22;20372;47.080;15.410;2022-12-11T01:39:19;4.70;97.40
34095;DHT22;20372;47.080;15.410;2022-12-11T01:41:45;4.70;96.70
34095;DHT22;20372;47.080;15.410;2022-12-11T01:46:39;4.70;96.80
34095;DHT22;20372;47.080;15.410;2022-12-11T01:49:06;4.70;97.20
34095;DHT22;20372;47.080;15.410;2022-12-11T01:51:32;4.70;97.00
34095;DHT22;20372;47.080;15.410;2022-12-11T01:54:04;4.70;96.00
34095;DHT22;20372;47.080;15.410;2022-12-11T01:56:32;4.80;96.10
34095;DHT22;20372;47.080;15.410;2022-12-11T01:58:59;4.80;96.10
34095;DHT22;20372;47.080;15.410;2022-12-11T02:01:31;4.70;96.60
34095;DHT22;20372;47.080;15.410;2022-12-11T02:03:58;4.60;96.90
34095;DHT22;20372;47.080;15.410;2022-12-11T02:06:38;4.60;96.10
34095;DHT22;20372;47.080;15.410;2022-12-11T02:09:04;4.70;95.60
34095;DHT22;20372;47.080;15.410;2022-12-11T02:12:14;4.70;96.60
34095;DHT22;20372;47.080;15.410;2022-12-11T02:16:57;4.80;96.10
34095;DHT22;20372;47.080;15.410;2022-12-11T02:22:08;4.60;96.40
34095;DHT22;20372;47.080;15.410;2022-12-11T02:30:08;4.50;96.80
34095;DHT22;20372;47.080;15.410;2022-12-11T02:35:23;4.50;97.40
34095;DHT22;20372;47.080;15.410;2022-12-11T02:37:51;4.50;97.00
34095;DHT22;20372;47.080;15.410;2022-12-11T02:40:18;4.40;99.90
34095;DHT22;20372;47.080;15.410;2022-12-11T02:42:46;4.50;97.00
34095;DHT22;20372;47.080;15.410;2022-12-11T02:45:12;4.50;96.20
34095;DHT22;20372;47.080;15.410;2022-12-11T02:47:38;4.60;96.30
34095;DHT22;20372;47.080;15.410;2022-12-11T02:50:06;4.50;96.60
34095;DHT22;20372;47.080;15.410;2022-12-11T02:52:34;4.50;97.40
34095;DHT22;20372;47.080;15.410;2022-12-11T02:55:00;4.50;96.50
34095;DHT22;20372;47.080;15.410;2022-12-11T02:57:28;4.50;96.70
34095;DHT22;20372;47.080;15.410;2022-12-11T02:59:55;4.50;96.50
34095;DHT22;20372;47.080;15.410;2022-12-11T03:02:21;4.40;97.90
34095;DHT22;20372;47.080;15.410;2022-12-11T03:04:46;4.40;97.00
34095;DHT22;20372;47.080;15.410;2022-12-11T03:07:13;4.40;96.50
34095;DHT22;20372;47.080;15.410;2022-12-11T03:09:44;4.30;96.50
34095;DHT22;20372;47.080;15.410;2022-12-11T03:12:11;4.40;96.40
34095;DHT22;20372;47.080;15.410;2022-12-11T03:14:39;4.30;96.60
34095;DHT22;20372;47.080;15.410;2022-12-11T03:19:41;4.20;96.80
34095;DHT22;20372;47.080;15.410;2022-12-11T03:22:27;4.30;96.50
34095;DHT22;20372;47.080;15.410;2022-12-11T03:24:57;4.30;96.50
34095;DHT22;20372;47.080;15.410;2022-12-11T03:27:35;4.20;97.30
34095;DHT22;20372;47.080;15.410;2022-12-11T03:30:20;4.10;98.20
34095;DHT22;20372;47.080;15.410;2022-12-11T03:33:03;4.10;98.00
34095;DHT22;20372;47.080;15.410;2022-12-11T03:35:43;4.00;99.00
34095;DHT22;20372;47.080;15.410;2022-12-11T03:38:11;3.90;99.40
34095;DHT22;20372;47.080;15.410;2022-12-11T03:40:38;3.80;99.80
34095;DHT22;20372;47.080;15.410;2022-12-11T03:43:04;3.70;99.90
34095;DHT22;20372;47.080;15.410;2022-12-11T03:45:31;3.60;99.90
34095;DHT22;20372;47.080;15.410;2022-12-11T03:47:58;3.60;99.90
34095;DHT22;20372;47.080;15.410;2022-12-11T03:50:25;3.50;99.90
34095;DHT22;20372;47.080;15.410;2022-12-11T03:52:51;3.50;99.90
34095;DHT22;20372;47.080;15.410;2022-12-11T03:55:18;3.40;99.90
34095;DHT22;20372;47.080;15.410;2022-12-11T03:57:45;3.40;99.90
34095;DHT22;20372;47.080;15.410;2022-12-11T04:00:15;3.40;99.90
34095;DHT22;20372;47.080;15.410;2022-12-11T04:02:42;3.40;99.90
34095;DHT22;20372;47.080;15.410;2022-12-11T04:05:09;3.30;99.90
34095;DHT22;20372;47.080;15.410;2022-12-11T04:07:35;3.40;99.90
34095;DHT22;20372;47.080;15.410;2022-12-11T04:10:00;3.40;99.90
34095;DHT22;20372;47.080;15.410;2022-12-11T04:12:26;3.30;99.90
34095;DHT22;20372;47.080;15.410;2022-12-11T04:14:51;3.30;99.90
34095;DHT22;20372;47.080;15.410;2022-12-11T04:17:34;3.30;99.90
34095;DHT22;20372;47.080;15.410;2022-12-11T04:20:29;3.30;99.90
34095;DHT22;20372;47.080;15.410;2022-12-11T04:23:14;3.40;99.90
34095;DHT22;20372;47.080;15.410;2022-12-11T04:26:05;3.30;99.90
34095;DHT22;20372;47.080;15.410;2022-12-11T04:28:32;3.40;99.90
34095;DHT22;20372;47.080;15.410;2022-12-11T04:30:57;3.30;99.90
34095;DHT22;20372;47.080;15.410;2022-12-11T04:33:23;3.30;99.70
34095;DHT22;20372;47.080;15.410;2022-12-11T04:35:49;3.40;98.50
34095;DHT22;20372;47.080;15.410;2022-12-11T04:38:14;3.60;98.30
34095;DHT22;20372;47.080;15.410;2022-12-11T04:40:40;3.40;98.80
34095;DHT22;20372;47.080;15.410;2022-12-11T04:43:05;3.40;98.50
34095;DHT22;20372;47.080;15.410;2022-12-11T04:45:31;3.50;98.10
34095;DHT22;20372;47.080;15.410;2022-12-11T04:47:56;3.50;97.80
34095;DHT22;20372;47.080;15.410;2022-12-11T04:50:22;3.60;96.70
34095;DHT22;20372;47.080;15.410;2022-12-11T04:52:47;3.70;96.40
34095;DHT22;20372;47.080;15.410;2022-12-11T04:55:13;3.60;97.80
34095;DHT22;20372;47.080;15.410;2022-12-11T04:57:39;3.60;96.10
34095;DHT22;20372;47.080;15.410;2022-12-11T05:00:05;3.60;97.60
34095;DHT22;20372;47.080;15.410;2022-12-11T05:02:35;3.60;96.40
34095;DHT22;20372;47.080;15.410;2022-12-11T05:05:01;3.70;95.30
34095;DHT22;20372;47.080;15.410;2022-12-11T05:07:27;3.80;94.60
34095;DHT22;20372;47.080;15.410;2022-12-11T05:09:53;3.80;94.80
34095;DHT22;20372;47.080;15.410;2022-12-11T05:12:18;3.80;96.30
34095;DHT22;20372;47.080;15.410;2022-12-11T05:14:44;3.80;95.00
34095;DHT22;20372;47.080;15.410;2022-12-11T05:17:10;3.80;95.20
34095;DHT22;20372;47.080;15.410;2022-12-11T05:19:35;3.80;94.40
34095;DHT22;20372;47.080;15.410;2022-12-11T05:22:01;3.80;94.30
34095;DHT22;20372;47.080;15.410;2022-12-11T05:24:26;3.90;93.70
34095;DHT22;20372;47.080;15.410;2022-12-11T05:26:52;3.90;95.00
34095;DHT22;20372;47.080;15.410;2022-12-11T05:29:17;3.90;94.00
34095;DHT22;20372;47.080;15.410;2022-12-11T05:31:43;4.00;93.40
34095;DHT22;20372;47.080;15.410;2022-12-11T05:34:09;4.00;93.50
34095;DHT22;20372;47.080;15.410;2022-12-11T05:36:34;4.00;92.80
34095;DHT22;20372;47.080;15.410;2022-12-11T05:39:00;4.00;93.00
34095;DHT22;20372;47.080;15.410;2022-12-11T05:41:27;4.00;93.20
34095;DHT22;20372;47.080;15.410;2022-12-11T05:43:53;3.90;92.90
34095;DHT22;20372;47.080;15.410;2022-12-11T05:46:22;4.20;92.20
34095;DHT22;20372;47.080;15.410;2022-12-11T05:48:49;4.00;94.20
34095;DHT22;20372;47.080;15.410;2022-12-11T05:51:16;4.00;92.50
34095;DHT22;20372;47.080;15.410;2022-12-11T05:53:42;4.00;92.50
34095;DHT22;20372;47.080;15.410;2022-12-11T05:56:13;4.00;92.90
34095;DHT22;20372;47.080;15.410;2022-12-11T05:58:39;4.00;92.50
34095;DHT22;20372;47.080;15.410;2022-12-11T06:01:12;4.10;92.30
34095;DHT22;20372;47.080;15.410;2022-12-11T06:03:38;4.10;92.30
34095;DHT22;20372;47.080;15.410;2022-12-11T06:06:04;4.00;93.80
34095;DHT22;20372;47.080;15.410;2022-12-11T06:08:30;3.90;92.20
34095;DHT22;20372;47.080;15.410;2022-12-11T06:10:56;4.00;92.50
34095;DHT22;20372;47.080;15.410;2022-12-11T06:13:22;4.00;91.70
34095;DHT22;20372;47.080;15.410;2022-12-11T06:15:47;4.00;91.80
34095;DHT22;20372;47.080;15.410;2022-12-11T06:18:13;4.00;91.40
34095;DHT22;20372;47.080;15.410;2022-12-11T06:20:38;3.90;92.50
34095;DHT22;20372;47.080;15.410;2022-12-11T06:23:04;3.90;92.50
34095;DHT22;20372;47.080;15.410;2022-12-11T06:25:30;3.90;91.60
34095;DHT22;20372;47.080;15.410;2022-12-11T06:27:55;3.90;91.70
34095;DHT22;20372;47.080;15.410;2022-12-11T06:30:21;3.90;92.10
34095;DHT22;20372;47.080;15.410;2022-12-11T06:32:47;3.90;92.30
34095;DHT22;20372;47.080;15.410;2022-12-11T06:35:12;3.80;91.80
34095;DHT22;20372;47.080;15.410;2022-12-11T06:37:39;3.90;91.30
34095;DHT22;20372;47.080;15.410;2022-12-11T06:40:05;3.90;91.60
34095;DHT22;20372;47.080;15.410;2022-12-11T06:42:31;3.80;92.00
34095;DHT22;20372;47.080;15.410;2022-12-11T06:44:56;3.90;91.70
34095;DHT22;20372;47.080;15.410;2022-12-11T06:47:27;3.90;92.50
34095;DHT22;20372;47.080;15.410;2022-12-11T06:49:53;3.80;92.30
34095;DHT22;20372;47.080;15.410;2022-12-11T06:52:19;3.90;91.90
34095;DHT22;20372;47.080;15.410;2022-12-11T06:54:45;3.80;92.50
34095;DHT22;20372;47.080;15.410;2022-12-11T06:57:10;3.90;91.30
34095;DHT22;20372;47.080;15.410;2022-12-11T06:59:36;3.90;91.60
34095;DHT22;20372;47.080;15.410;2022-12-11T07:02:02;3.90;91.10
34095;DHT22;20372;47.080;15.410;2022-12-11T07:04:28;3.90;91.20
34095;DHT22;20372;47.080;15.410;2022-12-11T07:06:55;3.80;91.60
34095;DHT22;20372;47.080;15.410;2022-12-11T07:09:21;3.80;91.30
34095;DHT22;20372;47.080;15.410;2022-12-11T07:11:50;3.80;91.10
34095;DHT22;20372;47.080;15.410;2022-12-11T07:14:16;3.90;90.80
34095;DHT22;20372;47.080;15.410;2022-12-11T07:16:42;3.90;89.70
34095;DHT22;20372;47.080;15.410;2022-12-11T07:19:07;3.90;90.70
34095;DHT22;20372;47.080;15.410;2022-12-11T07:21:33;3.90;90.90
34095;DHT22;20372;47.080;15.410;2022-12-11T07:23:58;3.90;90.60
34095;DHT22;20372;47.080;15.410;2022-12-11T07:26:24;3.90;90.90
34095;DHT22;20372;47.080;15.410;2022-12-11T07:28:49;3.90;90.70
34095;DHT22;20372;47.080;15.410;2022-12-11T07:31:20;3.90;89.10
34095;DHT22;20372;47.080;15.410;2022-12-11T07:33:47;3.90;90.30
34095;DHT22;20372;47.080;15.410;2022-12-11T07:36:18;3.90;90.00
34095;DHT22;20372;47.080;15.410;2022-12-11T07:38:44;3.90;89.40
34095;DHT22;20372;47.080;15.410;2022-12-11T07:41:10;4.00;89.30
34095;DHT22;20372;47.080;15.410;2022-12-11T07:43:36;3.90;89.30
34095;DHT22;20372;47.080;15.410;2022-12-11T07:46:02;4.00;90.00
34095;DHT22;20372;47.080;15.410;2022-12-11T07:48:28;4.00;89.40
34095;DHT22;20372;47.080;15.410;2022-12-11T07:50:54;3.90;90.00
34095;DHT22;20372;47.080;15.410;2022-12-11T07:53:19;4.00;88.70
34095;DHT22;20372;47.080;15.410;2022-12-11T07:55:45;4.00;87.40
34095;DHT22;20372;47.080;15.410;2022-12-11T07:58:10;4.00;87.10
34095;DHT22;20372;47.080;15.410;2022-12-11T08:00:36;4.00;87.10
34095;DHT22;20372;47.080;15.410;2022-12-11T08:03:01;4.00;88.80
34095;DHT22;20372;47.080;15.410;2022-12-11T08:05:27;4.00;87.50
34095;DHT22;20372;47.080;15.410;2022-12-11T08:07:53;4.10;87.60
34095;DHT22;20372;47.080;15.410;2022-12-11T08:10:18;4.00;87.00
34095;DHT22;20372;47.080;15.410;2022-12-11T08:12:44;4.00;86.50
34095;DHT22;20372;47.080;15.410;2022-12-11T08:15:10;4.10;86.10
34095;DHT22;20372;47.080;15.410;2022-12-11T08:17:35;4.10;86.70
34095;DHT22;20372;47.080;15.410;2022-12-11T08:20:01;4.20;86.10
34095;DHT22;20372;47.080;15.410;2022-12-11T08:22:26;4.20;86.30
34095;DHT22;20372;47.080;15.410;2022-12-11T08:24:52;4.20;85.70
34095;DHT22;20372;47.080;15.410;2022-12-11T08:27:17;4.30;85.10
34095;DHT22;20372;47.080;15.410;2022-12-11T08:29:43;4.30;85.40
34095;DHT22;20372;47.080;15.410;2022-12-11T08:32:10;4.30;85.30
34095;DHT22;20372;47.080;15.410;2022-12-11T08:34:38;4.20;85.60
34095;DHT22;20372;47.080;15.410;2022-12-11T08:37:03;4.30;86.40
34095;DHT22;20372;47.080;15.410;2022-12-11T08:39:29;4.20;85.90
34095;DHT22;20372;47.080;15.410;2022-12-11T08:41:54;4.30;85.30
34095;DHT22;20372;47.080;15.410;2022-12-11T08:44:21;4.40;85.70
34095;DHT22;20372;47.080;15.410;2022-12-11T08:46:49;4.40;85.60
34095;DHT22;20372;47.080;15.410;2022-12-11T08:49:14;4.30;84.30
34095;DHT22;20372;47.080;15.410;2022-12-11T08:51:40;4.40;85.50
34095;DHT22;20372;47.080;15.410;2022-12-11T08:54:06;4.50;84.20
34095;DHT22;20372;47.080;15.410;2022-12-11T08:56:31;4.30;84.20
34095;DHT22;20372;47.080;15.410;2022-12-11T08:58:59;4.40;84.00
34095;DHT22;20372;47.080;15.410;2022-12-11T09:01:25;4.50;84.70
34095;DHT22;20372;47.080;15.410;2022-12-11T09:03:52;4.50;84.50
34095;DHT22;20372;47.080;15.410;2022-12-11T09:06:19;4.50;85.60
34095;DHT22;20372;47.080;15.410;2022-12-11T09:08:46;4.50;84.70
34095;DHT22;20372;47.080;15.410;2022-12-11T09:11:13;4.50;84.40
34095;DHT22;20372;47.080;15.410;2022-12-11T09:13:39;4.50;83.90
34095;DHT22;20372;47.080;15.410;2022-12-11T09:16:06;4.40;82.90
34095;DHT22;20372;47.080;15.410;2022-12-11T09:18:34;4.40;83.20
34095;DHT22;20372;47.080;15.410;2022-12-11T09:21:03;4.40;84.10
34095;DHT22;20372;47.080;15.410;2022-12-11T09:23:29;4.40;84.20
34095;DHT22;20372;47.080;15.410;2022-12-11T09:25:55;4.50;84.10
34095;DHT22;20372;47.080;15.410;2022-12-11T09:28:20;4.50;84.40
34095;DHT22;20372;47.080;15.410;2022-12-11T09:30:46;4.40;83.10
34095;DHT22;20372;47.080;15.410;2022-12-11T09:33:11;4.30;82.00
34095;DHT22;20372;47.080;15.410;2022-12-11T09:35:37;4.30;82.10
34095;DHT22;20372;47.080;15.410;2022-12-11T09:38:03;4.20;81.70
34095;DHT22;20372;47.080;15.410;2022-12-11T09:40:28;4.30;81.90
34095;DHT22;20372;47.080;15.410;2022-12-11T09:45:39;4.50;83.10
34095;DHT22;20372;47.080;15.410;2022-12-11T09:48:06;4.50;82.90
34095;DHT22;20372;47.080;15.410;2022-12-11T09:50:32;4.50;81.20
34095;DHT22;20372;47.080;15.410;2022-12-11T09:55:33;4.50;82.90
34095;DHT22;20372;47.080;15.410;2022-12-11T10:01:00;4.50;82.40
34095;DHT22;20372;47.080;15.410;2022-12-11T10:07:10;4.30;80.00
34095;DHT22;20372;47.080;15.410;2022-12-11T10:14:20;4.50;80.20
34095;DHT22;20372;47.080;15.410;2022-12-11T10:16:49;4.50;80.00
34095;DHT22;20372;47.080;15.410;2022-12-11T10:21:44;4.30;78.30
34095;DHT22;20372;47.080;15.410;2022-12-11T10:24:23;4.30;77.60
34095;DHT22;20372;47.080;15.410;2022-12-11T10:26:51;4.20;78.10
34095;DHT22;20372;47.080;15.410;2022-12-11T10:29:18;4.20;79.20
34095;DHT22;20372;47.080;15.410;2022-12-11T10:31:47;4.00;79.50
34095;DHT22;20372;47.080;15.410;2022-12-11T10:34:18;4.30;79.70
34095;DHT22;20372;47.080;15.410;2022-12-11T10:36:48;4.30;77.30
34095;DHT22;20372;47.080;15.410;2022-12-11T10:39:18;4.20;78.90
34095;DHT22;20372;47.080;15.410;2022-12-11T10:41:45;4.20;78.50
34095;DHT22;20372;47.080;15.410;2022-12-11T10:44:32;4.10;78.30
34095;DHT22;20372;47.080;15.410;2022-12-11T10:47:13;4.20;78.20
34095;DHT22;20372;47.080;15.410;2022-12-11T10:49:42;4.20;77.90
34095;DHT22;20372;47.080;15.410;2022-12-11T10:52:09;4.20;78.60
34095;DHT22;20372;47.080;15.410;2022-12-11T10:54:39;4.20;79.50
34095;DHT22;20372;47.080;15.410;2022-12-11T10:57:06;4.40;79.80
34095;DHT22;20372;47.080;15.410;2022-12-11T10:59:35;4.40;77.30
34095;DHT22;20372;47.080;15.410;2022-12-11T11:02:02;4.20;77.80
34095;DHT22;20372;47.080;15.410;2022-12-11T11:04:30;4.40;78.50
34095;DHT22;20372;47.080;15.410;2022-12-11T11:07:10;4.40;77.70
34095;DHT22;20372;47.080;15.410;2022-12-11T11:09:37;4.40;77.10
34095;DHT22;20372;47.080;15.410;2022-12-11T11:12:04;4.40;77.70
34095;DHT22;20372;47.080;15.410;2022-12-11T11:14:41;4.40;76.30
34095;DHT22;20372;47.080;15.410;2022-12-11T11:17:10;4.30;78.20
34095;DHT22;20372;47.080;15.410;2022-12-11T11:19:38;4.30;77.70
34095;DHT22;20372;47.080;15.410;2022-12-11T11:22:04;4.30;76.80
34095;DHT22;20372;47.080;15.410;2022-12-11T11:24:39;4.30;76.90
34095;DHT22;20372;47.080;15.410;2022-12-11T11:29:45;4.50;77.30
34095;DHT22;20372;47.080;15.410;2022-12-11T11:32:13;4.60;77.30
34095;DHT22;20372;47.080;15.410;2022-12-11T11:34:39;4.60;75.30
34095;DHT22;20372;47.080;15.410;2022-12-11T11:37:14;4.40;76.00
34095;DHT22;20372;47.080;15.410;2022-12-11T11:39:46;4.40;75.50
34095;DHT22;20372;47.080;15.410;2022-12-11T11:42:14;4.40;75.70
34095;DHT22;20372;47.080;15.410;2022-12-11T11:44:42;4.30;75.10
34095;DHT22;20372;47.080;15.410;2022-12-11T11:50:00;4.20;75.90
34095;DHT22;20372;47.080;15.410;2022-12-11T11:52:28;4.20;74.20
34095;DHT22;20372;47.080;15.410;2022-12-11T11:57:26;4.20;75.80
34095;DHT22;20372;47.080;15.410;2022-12-11T11:59:54;4.30;75.80
34095;DHT22;20372;47.080;15.410;2022-12-11T12:02:22;4.40;75.20
34095;DHT22;20372;47.080;15.410;2022-12-11T12:04:47;4.20;74.60
34095;DHT22;20372;47.080;15.410;2022-12-11T12:14:44;4.20;75.70
34095;DHT22;20372;47.080;15.410;2022-12-11T12:17:18;4.10;74.20
34095;DHT22;20372;47.080;15.410;2022-12-11T12:22:17;4.00;75.30
34095;DHT22;20372;47.080;15.410;2022-12-11T12:27:24;4.00;75.80
34095;DHT22;20372;47.080;15.410;2022-12-11T12:29:59;3.90;74.60
34095;DHT22;20372;47.080;15.410;2022-12-11T12:32:46;4.00;75.50
34095;DHT22;20372;47.080;15.410;2022-12-11T12:35:31;4.00;75.50
34095;DHT22;20372;47.080;15.410;2022-12-11T12:38:06;3.90;75.90
34095;DHT22;20372;47.080;15.410;2022-12-11T12:41:08;3.80;74.50
34095;DHT22;20372;47.080;15.410;2022-12-11T12:43:45;3.80;74.80
34095;DHT22;20372;47.080;15.410;2022-12-11T12:48:47;3.80;75.70
34095;DHT22;20372;47.080;15.410;2022-12-11T12:51:13;3.70;74.40
34095;DHT22;20372;47.080;15.410;2022-12-11T12:53:40;3.70;75.80
34095;DHT22;20372;47.080;15.410;2022-12-11T12:56:08;3.70;75.90
34095;DHT22;20372;47.080;15.410;2022-12-11T12:58:43;3.60;74.60
34095;DHT22;20372;47.080;15.410;2022-12-11T13:01:13;3.60;73.80
34095;DHT22;20372;47.080;15.410;2022-12-11T13:04:25;3.50;74.30
34095;DHT22;20372;47.080;15.410;2022-12-11T13:08:57;3.50;74.40
34095;DHT22;20372;47.080;15.410;2022-12-11T13:11:30;3.50;76.60
34095;DHT22;20372;47.080;15.410;2022-12-11T13:16:41;3.40;74.10
34095;DHT22;20372;47.080;15.410;2022-12-11T13:19:17;3.30;74.10
34095;DHT22;20372;47.080;15.410;2022-12-11T13:21:54;3.40;76.80
34095;DHT22;20372;47.080;15.410;2022-12-11T13:26:46;3.30;73.90
34095;DHT22;20372;47.080;15.410;2022-12-11T13:29:31;3.30;75.00
34095;DHT22;20372;47.080;15.410;2022-12-11T13:32:01;3.20;73.10
34095;DHT22;20372;47.080;15.410;2022-12-11T13:34:30;3.10;74.60
34095;DHT22;20372;47.080;15.410;2022-12-11T13:36:56;3.10;74.70
34095;DHT22;20372;47.080;15.410;2022-12-11T13:39:23;3.10;75.40
34095;DHT22;20372;47.080;15.410;2022-12-11T13:41:51;3.00;75.10
34095;DHT22;20372;47.080;15.410;2022-12-11T13:44:22;2.90;75.40
34095;DHT22;20372;47.080;15.410;2022-12-11T13:46:48;2.90;76.50
34095;DHT22;20372;47.080;15.410;2022-12-11T13:49:22;2.80;76.00
34095;DHT22;20372;47.080;15.410;2022-12-11T13:51:55;2.70;77.10
34095;DHT22;20372;47.080;15.410;2022-12-11T13:54:21;2.70;78.00
34095;DHT22;20372;47.080;15.410;2022-12-11T13:59:19;2.60;78.00
34095;DHT22;20372;47.080;15.410;2022-12-11T14:01:44;2.50;77.00
34095;DHT22;20372;47.080;15.410;2022-12-11T14:04:11;2.50;78.80
34095;DHT22;20372;47.080;15.410;2022-12-11T14:06:40;2.50;78.40
34095;DHT22;20372;47.080;15.410;2022-12-11T14:09:06;2.40;78.10
34095;DHT22;20372;47.080;15.410;2022-12-11T14:11:33;2.30;78.40
34095;DHT22;20372;47.080;15.410;2022-12-11T14:14:00;2.40;78.80
34095;DHT22;20372;47.080;15.410;2022-12-11T14:16:27;2.40;79.20
34095;DHT22;20372;47.080;15.410;2022-12-11T14:19:02;2.30;80.00
34095;DHT22;20372;47.080;15.410;2022-12-11T14:21:28;2.30;79.40
34095;DHT22;20372;47.080;15.410;2022-12-11T14:23:54;2.20;79.70
34095;DHT22;20372;47.080;15.410;2022-12-11T14:26:22;2.20;79.50
34095;DHT22;20372;47.080;15.410;2022-12-11T14:28:48;2.20;79.70
34095;DHT22;20372;47.080;15.410;2022-12-11T14:31:15;2.20;79.90
34095;DHT22;20372;47.080;15.410;2022-12-11T14:33:43;2.10;79.00
34095;DHT22;20372;47.080;15.410;2022-12-11T14:36:09;2.10;80.50
34095;DHT22;20372;47.080;15.410;2022-12-11T14:38:42;2.20;80.90
34095;DHT22;20372;47.080;15.410;2022-12-11T14:41:12;2.10;80.80
34095;DHT22;20372;47.080;15.410;2022-12-11T14:43:42;2.10;81.60
34095;DHT22;20372;47.080;15.410;2022-12-11T14:46:19;2.00;80.90
34095;DHT22;20372;47.080;15.410;2022-12-11T14:48:53;1.90;81.60
34095;DHT22;20372;47.080;15.410;2022-12-11T14:51:20;1.90;83.30
34095;DHT22;20372;47.080;15.410;2022-12-11T14:53:46;1.90;83.00
34095;DHT22;20372;47.080;15.410;2022-12-11T14:56:20;1.90;83.30
34095;DHT22;20372;47.080;15.410;2022-12-11T14:58:53;1.90;83.50
34095;DHT22;20372;47.080;15.410;2022-12-11T15:01:30;1.90;83.90
34095;DHT22;20372;47.080;15.410;2022-12-11T15:04:01;1.90;82.70
34095;DHT22;20372;47.080;15.410;2022-12-11T15:06:28;1.80;82.80
34095;DHT22;20372;47.080;15.410;2022-12-11T15:08:53;1.90;85.10
34095;DHT22;20372;47.080;15.410;2022-12-11T15:11:19;1.80;82.30
34095;DHT22;20372;47.080;15.410;2022-12-11T15:16:17;1.80;83.10
34095;DHT22;20372;47.080;15.410;2022-12-11T15:18:46;1.70;84.00
34095;DHT22;20372;47.080;15.410;2022-12-11T15:21:12;1.70;83.70
34095;DHT22;20372;47.080;15.410;2022-12-11T15:23:57;1.70;84.60
34095;DHT22;20372;47.080;15.410;2022-12-11T15:29:24;1.60;85.80
34095;DHT22;20372;47.080;15.410;2022-12-11T15:32:00;1.60;86.20
34095;DHT22;20372;47.080;15.410;2022-12-11T15:34:30;1.60;87.00
34095;DHT22;20372;47.080;15.410;2022-12-11T15:36:56;1.50;87.40
34095;DHT22;20372;47.080;15.410;2022-12-11T15:39:21;1.40;88.70
34095;DHT22;20372;47.080;15.410;2022-12-11T15:41:47;1.40;88.80
34095;DHT22;20372;47.080;15.410;2022-12-11T15:44:15;1.30;89.20
34095;DHT22;20372;47.080;15.410;2022-12-11T15:46:42;1.30;89.60
34095;DHT22;20372;47.080;15.410;2022-12-11T15:49:10;1.30;89.00
34095;DHT22;20372;47.080;15.410;2022-12-11T15:51:36;1.30;88.90
34095;DHT22;20372;47.080;15.410;2022-12-11T15:54:02;1.30;89.20
34095;DHT22;20372;47.080;15.410;2022-12-11T15:56:28;1.30;88.60
34095;DHT22;20372;47.080;15.410;2022-12-11T15:58:54;1.30;89.70
34095;DHT22;20372;47.080;15.410;2022-12-11T16:01:21;1.30;89.30
34095;DHT22;20372;47.080;15.410;2022-12-11T16:03:46;1.30;89.20
34095;DHT22;20372;47.080;15.410;2022-12-11T16:06:14;1.30;88.70
34095;DHT22;20372;47.080;15.410;2022-12-11T16:08:40;1.30;88.60
34095;DHT22;20372;47.080;15.410;2022-12-11T16:11:05;1.30;90.10
34095;DHT22;20372;47.080;15.410;2022-12-11T16:13:31;1.20;89.30
34095;DHT22;20372;47.080;15.410;2022-12-11T16:15:56;1.20;89.90
34095;DHT22;20372;47.080;15.410;2022-12-11T16:18:22;1.10;90.60
34095;DHT22;20372;47.080;15.410;2022-12-11T16:20:49;1.00;91.20
34095;DHT22;20372;47.080;15.410;2022-12-11T16:23:14;1.00;91.60
34095;DHT22;20372;47.080;15.410;2022-12-11T16:25:42;0.90;92.00
34095;DHT22;20372;47.080;15.410;2022-12-11T16:28:08;1.00;93.60
34095;DHT22;20372;47.080;15.410;2022-12-11T16:30:35;1.00;92.50
34095;DHT22;20372;47.080;15.410;2022-12-11T16:33:02;0.90;92.80
34095;DHT22;20372;47.080;15.410;2022-12-11T16:35:28;0.90;92.90
34095;DHT22;20372;47.080;15.410;2022-12-11T16:37:54;0.90;93.40
34095;DHT22;20372;47.080;15.410;2022-12-11T16:40:20;0.80;93.80
34095;DHT22;20372;47.080;15.410;2022-12-11T16:42:45;0.90;94.80
34095;DHT22;20372;47.080;15.410;2022-12-11T16:45:13;1.00;96.30
34095;DHT22;20372;47.080;15.410;2022-12-11T16:47:39;0.90;95.00
34095;DHT22;20372;47.080;15.410;2022-12-11T16:50:05;0.70;95.10
34095;DHT22;20372;47.080;15.410;2022-12-11T16:52:31;0.70;94.60